sensor_id;sensor_type;location;lat;lon;timestamp;temperature;humidity
20866;DHT22;10593;48.398;10.698;2023-02-28T00:00:21;2.80;43.60
20866;DHT22;10593;48.398;10.698;2023-02-28T00:02:47;2.80;43.60
20866;DHT22;10593;48.398;10.698;2023-02-28T00:05:16;2.80;43.70
20866;DHT22;10593;48.398;10.698;2023-02-28T00:07:44;2.80;43.80
20866;DHT22;10593;48.398;10.698;2023-02-28T00:10:12;2.80;43.80
20866;DHT22;10593;48.398;10.698;2023-02-28T00:12:44;2.80;43.80
20866;DHT22;10593;48.398;10.698;2023-02-28T00:15:10;2.80;43.90
20866;DHT22;10593;48.398;10.698;2023-02-28T00:17:37;2.80;43.90
20866;DHT22;10593;48.398;10.698;2023-02-28T00:20:04;2.80;43.90
20866;DHT22;10593;48.398;10.698;2023-02-28T00:22:36;2.80;43.90
20866;DHT22;10593;48.398;10.698;2023-02-28T00:25:03;2.80;44.00
20866;DHT22;10593;48.398;10.698;2023-02-28T00:27:30;2.80;44.00
20866;DHT22;10593;48.398;10.698;2023-02-28T00:29:55;2.80;44.10
20866;DHT22;10593;48.398;10.698;2023-02-28T00:32:21;2.80;44.10
20866;DHT22;10593;48.398;10.698;2023-02-28T00:34:47;2.80;44.10
20866;DHT22;10593;48.398;10.698;2023-02-28T00:37:12;2.80;44.10
20866;DHT22;10593;48.398;10.698;2023-02-28T00:39:39;2.70;44.00
20866;DHT22;10593;48.398;10.698;2023-02-28T00:42:05;2.70;44.00
20866;DHT22;10593;48.398;10.698;2023-02-28T00:44:32;2.70;44.00
20866;DHT22;10593;48.398;10.698;2023-02-28T00:46:59;2.70;44.00
20866;DHT22;10593;48.398;10.698;2023-02-28T00:49:26;2.70;44.00
20866;DHT22;10593;48.398;10.698;2023-02-28T00:51:54;2.70;44.00
20866;DHT22;10593;48.398;10.698;2023-02-28T00:54:21;2.70;44.00
20866;DHT22;10593;48.398;10.698;2023-02-28T00:56:47;2.70;44.00
20866;DHT22;10593;48.398;10.698;2023-02-28T00:59:15;2.70;44.00
20866;DHT22;10593;48.398;10.698;2023-02-28T01:01:42;2.70;44.10
20866;DHT22;10593;48.398;10.698;2023-02-28T01:04:09;2.70;44.10
20866;DHT22;10593;48.398;10.698;2023-02-28T01:06:35;2.70;44.20
20866;DHT22;10593;48.398;10.698;2023-02-28T01:09:03;2.60;44.10
20866;DHT22;10593;48.398;10.698;2023-02-28T01:11:29;2.60;44.10
20866;DHT22;10593;48.398;10.698;2023-02-28T01:13:55;2.60;44.10
20866;DHT22;10593;48.398;10.698;2023-02-28T01:16:21;2.60;44.10
20866;DHT22;10593;48.398;10.698;2023-02-28T01:18:47;2.60;44.10
20866;DHT22;10593;48.398;10.698;2023-02-28T01:21:15;2.60;44.10
20866;DHT22;10593;48.398;10.698;2023-02-28T01:23:43;2.60;44.10
20866;DHT22;10593;48.398;10.698;2023-02-28T01:26:12;2.60;44.10
20866;DHT22;10593;48.398;10.698;2023-02-28T01:28:39;2.60;44.20
20866;DHT22;10593;48.398;10.698;2023-02-28T01:31:05;2.60;44.30
20866;DHT22;10593;48.398;10.698;2023-02-28T01:33:32;2.60;44.20
20866;DHT22;10593;48.398;10.698;2023-02-28T01:36:03;2.60;44.30
20866;DHT22;10593;48.398;10.698;2023-02-28T01:38:30;2.50;44.30
20866;DHT22;10593;48.398;10.698;2023-02-28T01:40:56;2.60;44.40
20866;DHT22;10593;48.398;10.698;2023-02-28T01:43:25;2.50;44.30
20866;DHT22;10593;48.398;10.698;2023-02-28T01:45:54;2.50;44.40
20866;DHT22;10593;48.398;10.698;2023-02-28T01:48:28;2.50;44.40
20866;DHT22;10593;48.398;10.698;2023-02-28T01:50:59;2.50;44.40
20866;DHT22;10593;48.398;10.698;2023-02-28T01:53:32;2.50;44.40
20866;DHT22;10593;48.398;10.698;2023-02-28T01:56:04;2.50;44.40
20866;DHT22;10593;48.398;10.698;2023-02-28T01:58:35;2.50;44.40
20866;DHT22;10593;48.398;10.698;2023-02-28T02:01:02;2.50;44.40
20866;DHT22;10593;48.398;10.698;2023-02-28T02:03:30;2.50;44.40
20866;DHT22;10593;48.398;10.698;2023-02-28T02:05:56;2.50;45.00
20866;DHT22;10593;48.398;10.698;2023-02-28T02:08:28;2.50;44.40
20866;DHT22;10593;48.398;10.698;2023-02-28T02:11:00;2.50;44.40
20866;DHT22;10593;48.398;10.698;2023-02-28T02:22:49;2.50;44.50
20866;DHT22;10593;48.398;10.698;2023-02-28T02:26:10;2.50;44.60
20866;DHT22;10593;48.398;10.698;2023-02-28T02:42:52;2.40;44.50
20866;DHT22;10593;48.398;10.698;2023-02-28T02:48:09;2.40;44.50
20866;DHT22;10593;48.398;10.698;2023-02-28T02:50:45;2.40;44.50
20866;DHT22;10593;48.398;10.698;2023-02-28T02:53:17;2.40;44.50
20866;DHT22;10593;48.398;10.698;2023-02-28T02:55:49;2.40;44.50
20866;DHT22;10593;48.398;10.698;2023-02-28T02:58:23;2.40;44.50
20866;DHT22;10593;48.398;10.698;2023-02-28T03:00:54;2.40;44.60
20866;DHT22;10593;48.398;10.698;2023-02-28T03:03:25;2.40;44.60
20866;DHT22;10593;48.398;10.698;2023-02-28T03:05:59;2.40;44.60
20866;DHT22;10593;48.398;10.698;2023-02-28T03:08:27;2.40;44.60
20866;DHT22;10593;48.398;10.698;2023-02-28T03:11:01;2.40;44.60
20866;DHT22;10593;48.398;10.698;2023-02-28T03:19:39;2.40;44.60
20866;DHT22;10593;48.398;10.698;2023-02-28T03:30:51;2.40;44.60
20866;DHT22;10593;48.398;10.698;2023-02-28T03:33:32;2.40;44.60
20866;DHT22;10593;48.398;10.698;2023-02-28T03:36:07;2.40;44.60
20866;DHT22;10593;48.398;10.698;2023-02-28T03:39:09;2.30;44.50
20866;DHT22;10593;48.398;10.698;2023-02-28T03:42:04;2.40;44.60
20866;DHT22;10593;48.398;10.698;2023-02-28T03:44:35;2.30;44.50
20866;DHT22;10593;48.398;10.698;2023-02-28T03:47:17;2.30;44.50
20866;DHT22;10593;48.398;10.698;2023-02-28T03:49:53;2.30;44.60
20866;DHT22;10593;48.398;10.698;2023-02-28T03:52:27;2.30;44.60
20866;DHT22;10593;48.398;10.698;2023-02-28T03:54:59;2.30;44.60
20866;DHT22;10593;48.398;10.698;2023-02-28T03:57:45;2.30;44.60
20866;DHT22;10593;48.398;10.698;2023-02-28T04:00:21;2.30;44.60
20866;DHT22;10593;48.398;10.698;2023-02-28T04:02:54;2.30;44.60
20866;DHT22;10593;48.398;10.698;2023-02-28T04:05:21;2.30;44.60
20866;DHT22;10593;48.398;10.698;2023-02-28T04:07:48;2.30;44.60
20866;DHT22;10593;48.398;10.698;2023-02-28T04:10:15;2.30;44.60
20866;DHT22;10593;48.398;10.698;2023-02-28T04:12:41;2.30;44.60
20866;DHT22;10593;48.398;10.698;2023-02-28T04:15:07;2.30;44.60
20866;DHT22;10593;48.398;10.698;2023-02-28T04:17:34;2.30;44.60
20866;DHT22;10593;48.398;10.698;2023-02-28T04:19:59;2.30;44.70
20866;DHT22;10593;48.398;10.698;2023-02-28T04:22:25;2.30;44.70
20866;DHT22;10593;48.398;10.698;2023-02-28T04:24:53;2.30;44.60
20866;DHT22;10593;48.398;10.698;2023-02-28T04:27:20;2.30;44.60
20866;DHT22;10593;48.398;10.698;2023-02-28T04:29:46;2.30;44.60
20866;DHT22;10593;48.398;10.698;2023-02-28T04:32:12;2.30;44.60
20866;DHT22;10593;48.398;10.698;2023-02-28T04:34:38;2.30;44.60
20866;DHT22;10593;48.398;10.698;2023-02-28T04:37:04;2.30;44.60
20866;DHT22;10593;48.398;10.698;2023-02-28T04:39:34;2.30;44.60
20866;DHT22;10593;48.398;10.698;2023-02-28T04:42:01;2.30;44.60
20866;DHT22;10593;48.398;10.698;2023-02-28T04:44:26;2.30;44.70
20866;DHT22;10593;48.398;10.698;2023-02-28T04:46:52;2.30;44.70
20866;DHT22;10593;48.398;10.698;2023-02-28T04:49:17;2.20;44.60
20866;DHT22;10593;48.398;10.698;2023-02-28T04:51:43;2.20;44.60
20866;DHT22;10593;48.398;10.698;2023-02-28T04:54:09;2.30;44.80
20866;DHT22;10593;48.398;10.698;2023-02-28T04:56:35;2.20;44.70
20866;DHT22;10593;48.398;10.698;2023-02-28T04:59:01;2.20;44.70
20866;DHT22;10593;48.398;10.698;2023-02-28T05:01:28;2.20;44.70
20866;DHT22;10593;48.398;10.698;2023-02-28T05:03:57;2.20;44.70
20866;DHT22;10593;48.398;10.698;2023-02-28T05:06:26;2.20;44.70
20866;DHT22;10593;48.398;10.698;2023-02-28T05:08:53;2.20;44.70
20866;DHT22;10593;48.398;10.698;2023-02-28T05:11:25;2.20;44.80
20866;DHT22;10593;48.398;10.698;2023-02-28T05:14:03;2.20;44.80
20866;DHT22;10593;48.398;10.698;2023-02-28T05:16:31;2.20;45.30
20866;DHT22;10593;48.398;10.698;2023-02-28T05:18:57;2.20;44.80
20866;DHT22;10593;48.398;10.698;2023-02-28T05:21:35;2.20;44.70
20866;DHT22;10593;48.398;10.698;2023-02-28T05:24:05;2.20;44.80
20866;DHT22;10593;48.398;10.698;2023-02-28T05:26:41;2.20;44.80
20866;DHT22;10593;48.398;10.698;2023-02-28T05:29:08;2.20;44.80
20866;DHT22;10593;48.398;10.698;2023-02-28T05:31:35;2.20;44.90
20866;DHT22;10593;48.398;10.698;2023-02-28T05:34:01;2.20;44.90
20866;DHT22;10593;48.398;10.698;2023-02-28T05:36:30;2.20;44.90
20866;DHT22;10593;48.398;10.698;2023-02-28T05:38:56;2.20;44.90
20866;DHT22;10593;48.398;10.698;2023-02-28T05:41:22;2.20;44.90
20866;DHT22;10593;48.398;10.698;2023-02-28T05:43:48;2.20;44.90
20866;DHT22;10593;48.398;10.698;2023-02-28T05:46:14;2.20;44.90
20866;DHT22;10593;48.398;10.698;2023-02-28T05:48:41;2.20;44.90
20866;DHT22;10593;48.398;10.698;2023-02-28T05:51:08;2.20;44.90
20866;DHT22;10593;48.398;10.698;2023-02-28T05:53:35;2.20;44.90
20866;DHT22;10593;48.398;10.698;2023-02-28T05:56:01;2.20;44.90
20866;DHT22;10593;48.398;10.698;2023-02-28T05:58:28;2.20;44.90
20866;DHT22;10593;48.398;10.698;2023-02-28T06:00:56;2.20;44.90
20866;DHT22;10593;48.398;10.698;2023-02-28T06:03:23;2.20;45.00
20866;DHT22;10593;48.398;10.698;2023-02-28T06:05:49;2.20;45.00
20866;DHT22;10593;48.398;10.698;2023-02-28T06:08:15;2.20;45.00
20866;DHT22;10593;48.398;10.698;2023-02-28T06:10:41;2.20;45.00
20866;DHT22;10593;48.398;10.698;2023-02-28T06:13:07;2.20;45.00
20866;DHT22;10593;48.398;10.698;2023-02-28T06:15:33;2.20;45.00
20866;DHT22;10593;48.398;10.698;2023-02-28T06:17:59;2.20;45.00
20866;DHT22;10593;48.398;10.698;2023-02-28T06:20:27;2.20;45.00
20866;DHT22;10593;48.398;10.698;2023-02-28T06:22:55;2.20;45.00
20866;DHT22;10593;48.398;10.698;2023-02-28T06:25:24;2.20;44.90
20866;DHT22;10593;48.398;10.698;2023-02-28T06:27:51;2.20;44.90
20866;DHT22;10593;48.398;10.698;2023-02-28T06:30:17;2.20;45.00
20866;DHT22;10593;48.398;10.698;2023-02-28T06:32:43;2.20;45.00
20866;DHT22;10593;48.398;10.698;2023-02-28T06:35:09;2.20;45.00
20866;DHT22;10593;48.398;10.698;2023-02-28T06:37:35;2.10;45.00
20866;DHT22;10593;48.398;10.698;2023-02-28T06:40:00;2.10;45.00
20866;DHT22;10593;48.398;10.698;2023-02-28T06:42:26;2.10;45.10
20866;DHT22;10593;48.398;10.698;2023-02-28T06:44:54;2.10;45.10
20866;DHT22;10593;48.398;10.698;2023-02-28T06:47:21;2.10;45.10
20866;DHT22;10593;48.398;10.698;2023-02-28T06:49:47;2.10;45.10
20866;DHT22;10593;48.398;10.698;2023-02-28T06:52:14;2.10;45.10
20866;DHT22;10593;48.398;10.698;2023-02-28T06:54:39;2.10;45.10
20866;DHT22;10593;48.398;10.698;2023-02-28T06:57:05;2.20;45.20
20866;DHT22;10593;48.398;10.698;2023-02-28T06:59:30;2.20;45.20
20866;DHT22;10593;48.398;10.698;2023-02-28T07:01:56;2.10;45.20
20866;DHT22;10593;48.398;10.698;2023-02-28T07:04:22;2.10;45.20
20866;DHT22;10593;48.398;10.698;2023-02-28T07:06:48;2.10;45.20
20866;DHT22;10593;48.398;10.698;2023-02-28T07:09:14;2.20;45.30
20866;DHT22;10593;48.398;10.698;2023-02-28T07:11:40;2.20;45.30
20866;DHT22;10593;48.398;10.698;2023-02-28T07:14:06;2.20;45.30
20866;DHT22;10593;48.398;10.698;2023-02-28T07:16:32;2.10;45.20
20866;DHT22;10593;48.398;10.698;2023-02-28T07:18:58;2.20;45.30
20866;DHT22;10593;48.398;10.698;2023-02-28T07:21:24;2.20;45.30
20866;DHT22;10593;48.398;10.698;2023-02-28T07:23:50;2.20;45.30
20866;DHT22;10593;48.398;10.698;2023-02-28T07:26:18;2.20;45.30
20866;DHT22;10593;48.398;10.698;2023-02-28T07:28:47;2.20;45.30
20866;DHT22;10593;48.398;10.698;2023-02-28T07:31:14;2.10;45.30
20866;DHT22;10593;48.398;10.698;2023-02-28T07:33:41;2.10;45.20
20866;DHT22;10593;48.398;10.698;2023-02-28T07:36:13;2.10;45.30
20866;DHT22;10593;48.398;10.698;2023-02-28T07:38:45;2.20;45.30
20866;DHT22;10593;48.398;10.698;2023-02-28T07:41:14;2.10;45.90
20866;DHT22;10593;48.398;10.698;2023-02-28T07:43:41;2.10;45.40
20866;DHT22;10593;48.398;10.698;2023-02-28T07:46:10;2.10;45.40
20866;DHT22;10593;48.398;10.698;2023-02-28T07:48:37;2.20;45.50
20866;DHT22;10593;48.398;10.698;2023-02-28T07:51:04;2.20;45.40
20866;DHT22;10593;48.398;10.698;2023-02-28T07:53:30;2.20;45.40
20866;DHT22;10593;48.398;10.698;2023-02-28T07:56:00;2.20;45.40
20866;DHT22;10593;48.398;10.698;2023-02-28T07:58:28;2.20;45.50
20866;DHT22;10593;48.398;10.698;2023-02-28T08:00:55;2.20;45.50
20866;DHT22;10593;48.398;10.698;2023-02-28T08:03:22;2.20;45.50
20866;DHT22;10593;48.398;10.698;2023-02-28T08:05:49;2.20;45.60
20866;DHT22;10593;48.398;10.698;2023-02-28T08:08:16;2.20;45.50
20866;DHT22;10593;48.398;10.698;2023-02-28T08:10:42;2.20;45.50
20866;DHT22;10593;48.398;10.698;2023-02-28T08:13:08;2.20;45.50
20866;DHT22;10593;48.398;10.698;2023-02-28T08:15:34;2.20;45.50
20866;DHT22;10593;48.398;10.698;2023-02-28T08:18:01;2.20;45.50
20866;DHT22;10593;48.398;10.698;2023-02-28T08:20:27;2.20;45.40
20866;DHT22;10593;48.398;10.698;2023-02-28T08:22:53;2.30;45.50
20866;DHT22;10593;48.398;10.698;2023-02-28T08:25:19;2.30;45.60
20866;DHT22;10593;48.398;10.698;2023-02-28T08:27:45;2.30;45.60
20866;DHT22;10593;48.398;10.698;2023-02-28T08:30:12;2.30;45.50
20866;DHT22;10593;48.398;10.698;2023-02-28T08:32:39;2.30;45.50
20866;DHT22;10593;48.398;10.698;2023-02-28T08:35:05;2.30;45.60
20866;DHT22;10593;48.398;10.698;2023-02-28T08:37:31;2.30;45.50
20866;DHT22;10593;48.398;10.698;2023-02-28T08:39:57;2.30;45.40
20866;DHT22;10593;48.398;10.698;2023-02-28T08:42:23;2.30;45.40
20866;DHT22;10593;48.398;10.698;2023-02-28T08:44:49;2.30;45.50
20866;DHT22;10593;48.398;10.698;2023-02-28T08:47:15;2.40;45.60
20866;DHT22;10593;48.398;10.698;2023-02-28T08:49:41;2.40;45.60
20866;DHT22;10593;48.398;10.698;2023-02-28T08:52:07;2.40;45.50
20866;DHT22;10593;48.398;10.698;2023-02-28T08:54:32;2.40;45.50
20866;DHT22;10593;48.398;10.698;2023-02-28T08:56:59;2.40;45.50
20866;DHT22;10593;48.398;10.698;2023-02-28T08:59:25;2.40;45.40
20866;DHT22;10593;48.398;10.698;2023-02-28T09:01:50;2.40;45.40
20866;DHT22;10593;48.398;10.698;2023-02-28T09:04:16;2.40;45.40
20866;DHT22;10593;48.398;10.698;2023-02-28T09:06:42;2.40;45.40
20866;DHT22;10593;48.398;10.698;2023-02-28T09:09:07;2.50;45.40
20866;DHT22;10593;48.398;10.698;2023-02-28T09:11:35;2.50;45.40
20866;DHT22;10593;48.398;10.698;2023-02-28T09:14:01;2.50;45.40
20866;DHT22;10593;48.398;10.698;2023-02-28T09:16:29;2.50;45.40
20866;DHT22;10593;48.398;10.698;2023-02-28T09:18:56;2.50;45.40
20866;DHT22;10593;48.398;10.698;2023-02-28T09:21:22;2.50;45.40
20866;DHT22;10593;48.398;10.698;2023-02-28T09:23:49;2.50;45.40
20866;DHT22;10593;48.398;10.698;2023-02-28T09:26:18;2.60;45.50
20866;DHT22;10593;48.398;10.698;2023-02-28T09:28:47;2.60;45.50
20866;DHT22;10593;48.398;10.698;2023-02-28T09:31:15;2.60;45.60
20866;DHT22;10593;48.398;10.698;2023-02-28T09:33:46;2.60;45.70
20866;DHT22;10593;48.398;10.698;2023-02-28T09:36:16;2.60;45.70
20866;DHT22;10593;48.398;10.698;2023-02-28T09:38:42;2.60;45.50
20866;DHT22;10593;48.398;10.698;2023-02-28T09:41:17;2.60;45.50
20866;DHT22;10593;48.398;10.698;2023-02-28T09:43:50;2.70;45.50
20866;DHT22;10593;48.398;10.698;2023-02-28T09:46:36;2.70;45.40
20866;DHT22;10593;48.398;10.698;2023-02-28T09:49:11;2.70;45.40
20866;DHT22;10593;48.398;10.698;2023-02-28T09:54:18;2.70;45.30
20866;DHT22;10593;48.398;10.698;2023-02-28T09:59:56;2.80;45.30
20866;DHT22;10593;48.398;10.698;2023-02-28T10:02:58;2.80;45.20
20866;DHT22;10593;48.398;10.698;2023-02-28T10:05:37;2.80;45.20
20866;DHT22;10593;48.398;10.698;2023-02-28T10:08:18;2.80;45.10
20866;DHT22;10593;48.398;10.698;2023-02-28T10:11:12;2.80;45.20
20866;DHT22;10593;48.398;10.698;2023-02-28T10:13:58;2.80;45.20
20866;DHT22;10593;48.398;10.698;2023-02-28T10:16:45;2.80;45.20
20866;DHT22;10593;48.398;10.698;2023-02-28T10:19:38;2.80;45.30
20866;DHT22;10593;48.398;10.698;2023-02-28T10:24:53;2.90;45.40
20866;DHT22;10593;48.398;10.698;2023-02-28T10:27:28;2.90;45.50
20866;DHT22;10593;48.398;10.698;2023-02-28T10:29:57;2.90;45.50
20866;DHT22;10593;48.398;10.698;2023-02-28T10:32:29;2.90;45.50
20866;DHT22;10593;48.398;10.698;2023-02-28T10:37:38;3.00;45.90
20866;DHT22;10593;48.398;10.698;2023-02-28T10:43:05;3.10;45.70
20866;DHT22;10593;48.398;10.698;2023-02-28T10:48:58;3.20;45.90
20866;DHT22;10593;48.398;10.698;2023-02-28T10:51:38;3.20;45.70
20866;DHT22;10593;48.398;10.698;2023-02-28T10:54:06;3.30;45.60
20866;DHT22;10593;48.398;10.698;2023-02-28T10:56:41;3.30;45.70
20866;DHT22;10593;48.398;10.698;2023-02-28T11:01:47;3.30;45.50
20866;DHT22;10593;48.398;10.698;2023-02-28T11:06:58;3.40;45.50
20866;DHT22;10593;48.398;10.698;2023-02-28T11:09:38;3.40;45.50
20866;DHT22;10593;48.398;10.698;2023-02-28T11:12:08;3.50;45.60
20866;DHT22;10593;48.398;10.698;2023-02-28T11:14:58;3.50;45.50
20866;DHT22;10593;48.398;10.698;2023-02-28T11:17:29;3.50;45.40
20866;DHT22;10593;48.398;10.698;2023-02-28T11:20:05;3.50;45.40
20866;DHT22;10593;48.398;10.698;2023-02-28T11:22:36;3.60;45.30
20866;DHT22;10593;48.398;10.698;2023-02-28T11:25:23;3.60;45.30
20866;DHT22;10593;48.398;10.698;2023-02-28T11:27:52;3.60;45.40
20866;DHT22;10593;48.398;10.698;2023-02-28T11:30:31;3.60;45.60
20866;DHT22;10593;48.398;10.698;2023-02-28T11:33:27;3.60;45.70
20866;DHT22;10593;48.398;10.698;2023-02-28T11:36:00;3.70;45.70
20866;DHT22;10593;48.398;10.698;2023-02-28T11:38:29;3.70;45.70
20866;DHT22;10593;48.398;10.698;2023-02-28T11:44:12;3.80;45.60
20866;DHT22;10593;48.398;10.698;2023-02-28T11:46:52;3.80;45.50
20866;DHT22;10593;48.398;10.698;2023-02-28T12:09:58;4.10;45.60
20866;DHT22;10593;48.398;10.698;2023-02-28T12:13:21;4.10;45.40
20866;DHT22;10593;48.398;10.698;2023-02-28T12:18:46;4.20;45.50
20866;DHT22;10593;48.398;10.698;2023-02-28T12:21:29;4.20;45.50
20866;DHT22;10593;48.398;10.698;2023-02-28T12:27:02;4.30;45.50
20866;DHT22;10593;48.398;10.698;2023-02-28T12:30:01;4.30;45.50
20866;DHT22;10593;48.398;10.698;2023-02-28T12:32:42;4.30;45.30
20866;DHT22;10593;48.398;10.698;2023-02-28T12:35:16;4.30;45.20
20866;DHT22;10593;48.398;10.698;2023-02-28T12:38:01;4.40;45.30
20866;DHT22;10593;48.398;10.698;2023-02-28T12:40:47;4.40;45.30
20866;DHT22;10593;48.398;10.698;2023-02-28T12:43:21;4.40;45.20
20866;DHT22;10593;48.398;10.698;2023-02-28T12:45:55;4.50;45.30
20866;DHT22;10593;48.398;10.698;2023-02-28T12:51:06;4.50;45.00
20866;DHT22;10593;48.398;10.698;2023-02-28T12:53:55;4.50;45.00
20866;DHT22;10593;48.398;10.698;2023-02-28T12:56:58;4.60;45.00
20866;DHT22;10593;48.398;10.698;2023-02-28T12:59:48;4.60;44.70
20866;DHT22;10593;48.398;10.698;2023-02-28T13:02:41;4.60;44.50
20866;DHT22;10593;48.398;10.698;2023-02-28T13:05:38;4.60;44.60
20866;DHT22;10593;48.398;10.698;2023-02-28T13:08:23;4.60;44.60
20866;DHT22;10593;48.398;10.698;2023-02-28T13:11:07;4.60;45.00
20866;DHT22;10593;48.398;10.698;2023-02-28T13:13:48;4.70;45.10
20866;DHT22;10593;48.398;10.698;2023-02-28T13:16:13;4.70;45.00
20866;DHT22;10593;48.398;10.698;2023-02-28T13:18:43;4.70;44.80
20866;DHT22;10593;48.398;10.698;2023-02-28T13:21:32;4.80;44.80
20866;DHT22;10593;48.398;10.698;2023-02-28T13:24:08;4.80;44.70
20866;DHT22;10593;48.398;10.698;2023-02-28T13:39:55;5.00;44.90
20866;DHT22;10593;48.398;10.698;2023-02-28T13:47:43;5.00;44.60
20866;DHT22;10593;48.398;10.698;2023-02-28T13:56:04;5.10;44.60
20866;DHT22;10593;48.398;10.698;2023-02-28T13:58:54;5.10;44.60
20866;DHT22;10593;48.398;10.698;2023-02-28T14:01:56;5.10;44.40
20866;DHT22;10593;48.398;10.698;2023-02-28T14:07:59;5.20;44.40
20866;DHT22;10593;48.398;10.698;2023-02-28T14:10:33;5.20;44.30
20866;DHT22;10593;48.398;10.698;2023-02-28T14:16:20;5.20;44.10
20866;DHT22;10593;48.398;10.698;2023-02-28T14:18:51;5.20;44.10
20866;DHT22;10593;48.398;10.698;2023-02-28T14:21:29;5.20;44.00
20866;DHT22;10593;48.398;10.698;2023-02-28T14:33:01;5.30;44.10
20866;DHT22;10593;48.398;10.698;2023-02-28T14:38:52;5.30;44.10
20866;DHT22;10593;48.398;10.698;2023-02-28T14:41:38;5.30;44.20
20866;DHT22;10593;48.398;10.698;2023-02-28T14:46:53;5.30;44.10
20866;DHT22;10593;48.398;10.698;2023-02-28T14:49:28;5.30;44.10
20866;DHT22;10593;48.398;10.698;2023-02-28T14:54:41;5.30;43.80
20866;DHT22;10593;48.398;10.698;2023-02-28T14:57:24;5.40;44.10
20866;DHT22;10593;48.398;10.698;2023-02-28T15:00:06;5.40;43.90
20866;DHT22;10593;48.398;10.698;2023-02-28T15:02:39;5.40;43.80
20866;DHT22;10593;48.398;10.698;2023-02-28T15:07:36;5.40;43.70
20866;DHT22;10593;48.398;10.698;2023-02-28T15:10:18;5.40;43.70
20866;DHT22;10593;48.398;10.698;2023-02-28T15:12:53;5.40;43.60
20866;DHT22;10593;48.398;10.698;2023-02-28T15:18:47;5.50;43.50
20866;DHT22;10593;48.398;10.698;2023-02-28T15:21:26;5.50;43.50
20866;DHT22;10593;48.398;10.698;2023-02-28T15:26:42;5.50;43.50
20866;DHT22;10593;48.398;10.698;2023-02-28T15:29:19;5.50;43.60
20866;DHT22;10593;48.398;10.698;2023-02-28T15:31:55;5.50;43.60
20866;DHT22;10593;48.398;10.698;2023-02-28T15:34:37;5.50;43.70
20866;DHT22;10593;48.398;10.698;2023-02-28T15:37:24;5.50;43.50
20866;DHT22;10593;48.398;10.698;2023-02-28T15:39:57;5.50;43.50
20866;DHT22;10593;48.398;10.698;2023-02-28T15:42:30;5.50;43.50
20866;DHT22;10593;48.398;10.698;2023-02-28T15:44:57;5.60;43.60
20866;DHT22;10593;48.398;10.698;2023-02-28T15:47:25;5.60;43.50
20866;DHT22;10593;48.398;10.698;2023-02-28T15:49:58;5.60;43.40
20866;DHT22;10593;48.398;10.698;2023-02-28T15:52:38;5.60;43.30
20866;DHT22;10593;48.398;10.698;2023-02-28T15:57:51;5.60;43.20
20866;DHT22;10593;48.398;10.698;2023-02-28T16:00:22;5.60;43.30
20866;DHT22;10593;48.398;10.698;2023-02-28T16:02:49;5.60;43.30
20866;DHT22;10593;48.398;10.698;2023-02-28T16:05:28;5.60;43.30
20866;DHT22;10593;48.398;10.698;2023-02-28T16:08:01;5.60;43.20
20866;DHT22;10593;48.398;10.698;2023-02-28T16:10:38;5.60;43.30
20866;DHT22;10593;48.398;10.698;2023-02-28T16:13:05;5.60;43.30
20866;DHT22;10593;48.398;10.698;2023-02-28T16:15:37;5.60;43.30
20866;DHT22;10593;48.398;10.698;2023-02-28T16:18:10;5.60;43.70
20866;DHT22;10593;48.398;10.698;2023-02-28T16:20:37;5.60;43.20
20866;DHT22;10593;48.398;10.698;2023-02-28T16:23:04;5.60;43.30
20866;DHT22;10593;48.398;10.698;2023-02-28T16:25:55;5.60;43.30
20866;DHT22;10593;48.398;10.698;2023-02-28T16:28:47;5.60;43.10
20866;DHT22;10593;48.398;10.698;2023-02-28T16:31:16;5.60;43.10
20866;DHT22;10593;48.398;10.698;2023-02-28T16:33:44;5.60;43.30
20866;DHT22;10593;48.398;10.698;2023-02-28T16:36:16;5.60;43.30
20866;DHT22;10593;48.398;10.698;2023-02-28T16:38:44;5.60;43.30
20866;DHT22;10593;48.398;10.698;2023-02-28T16:41:14;5.60;43.30
20866;DHT22;10593;48.398;10.698;2023-02-28T16:43:50;5.60;43.30
20866;DHT22;10593;48.398;10.698;2023-02-28T16:46:18;5.60;43.30
20866;DHT22;10593;48.398;10.698;2023-02-28T16:48:48;5.60;43.30
20866;DHT22;10593;48.398;10.698;2023-02-28T16:51:17;5.60;43.30
20866;DHT22;10593;48.398;10.698;2023-02-28T16:53:50;5.60;43.30
20866;DHT22;10593;48.398;10.698;2023-02-28T16:56:21;5.60;43.20
20866;DHT22;10593;48.398;10.698;2023-02-28T16:58:49;5.60;43.30
20866;DHT22;10593;48.398;10.698;2023-02-28T17:01:19;5.60;43.30
20866;DHT22;10593;48.398;10.698;2023-02-28T17:03:48;5.60;43.40
20866;DHT22;10593;48.398;10.698;2023-02-28T17:06:22;5.50;43.30
20866;DHT22;10593;48.398;10.698;2023-02-28T17:09:19;5.50;43.30
20866;DHT22;10593;48.398;10.698;2023-02-28T17:11:47;5.50;43.90
20866;DHT22;10593;48.398;10.698;2023-02-28T17:14:23;5.50;43.40
20866;DHT22;10593;48.398;10.698;2023-02-28T17:16:49;5.50;43.30
20866;DHT22;10593;48.398;10.698;2023-02-28T17:19:16;5.50;43.30
20866;DHT22;10593;48.398;10.698;2023-02-28T17:33:52;5.40;43.20
20866;DHT22;10593;48.398;10.698;2023-02-28T17:36:25;5.40;43.30
20866;DHT22;10593;48.398;10.698;2023-02-28T17:38:52;5.40;43.30
20866;DHT22;10593;48.398;10.698;2023-02-28T17:41:20;5.30;43.30
20866;DHT22;10593;48.398;10.698;2023-02-28T17:43:46;5.30;43.30
20866;DHT22;10593;48.398;10.698;2023-02-28T17:46:17;5.30;43.30
20866;DHT22;10593;48.398;10.698;2023-02-28T17:48:45;5.30;43.30
20866;DHT22;10593;48.398;10.698;2023-02-28T17:51:15;5.30;43.40
20866;DHT22;10593;48.398;10.698;2023-02-28T17:53:42;5.30;43.40
20866;DHT22;10593;48.398;10.698;2023-02-28T17:56:27;5.30;43.40
20866;DHT22;10593;48.398;10.698;2023-02-28T17:58:56;5.30;43.40
20866;DHT22;10593;48.398;10.698;2023-02-28T18:01:22;5.30;43.50
20866;DHT22;10593;48.398;10.698;2023-02-28T18:06:25;5.30;43.50
20866;DHT22;10593;48.398;10.698;2023-02-28T18:08:55;5.20;43.50
20866;DHT22;10593;48.398;10.698;2023-02-28T18:11:23;5.20;43.50
20866;DHT22;10593;48.398;10.698;2023-02-28T18:13:53;5.20;43.50
20866;DHT22;10593;48.398;10.698;2023-02-28T18:16:23;5.20;43.50
20866;DHT22;10593;48.398;10.698;2023-02-28T18:18:49;5.20;43.50
20866;DHT22;10593;48.398;10.698;2023-02-28T18:21:15;5.20;43.50
20866;DHT22;10593;48.398;10.698;2023-02-28T18:23:42;5.20;43.60
20866;DHT22;10593;48.398;10.698;2023-02-28T18:26:17;5.20;43.60
20866;DHT22;10593;48.398;10.698;2023-02-28T18:28:44;5.10;43.60
20866;DHT22;10593;48.398;10.698;2023-02-28T18:31:13;5.20;43.70
20866;DHT22;10593;48.398;10.698;2023-02-28T18:33:41;5.10;43.70
20866;DHT22;10593;48.398;10.698;2023-02-28T18:36:07;5.10;43.70
20866;DHT22;10593;48.398;10.698;2023-02-28T18:38:34;5.10;43.70
20866;DHT22;10593;48.398;10.698;2023-02-28T18:41:03;5.10;43.70
20866;DHT22;10593;48.398;10.698;2023-02-28T18:43:31;5.00;43.70
20866;DHT22;10593;48.398;10.698;2023-02-28T18:46:06;5.10;43.70